createdAt,value
2023-05-24T00:03:06.651Z,76
2023-05-24T00:06:31.786Z,77
2023-05-24T00:09:57.026Z,76
2023-05-24T00:13:22.217Z,76
2023-05-24T00:16:47.439Z,76
2023-05-24T00:20:12.726Z,76
2023-05-24T00:23:37.834Z,76
2023-05-24T00:27:03.078Z,75
2023-05-24T00:30:28.300Z,75
2023-05-24T00:33:53.563Z,75
2023-05-24T00:37:18.837Z,75
2023-05-24T00:40:44.067Z,75
2023-05-24T00:44:09.231Z,75
2023-05-24T00:47:34.510Z,75
2023-05-24T00:50:59.679Z,75
2023-05-24T00:54:24.923Z,76
2023-05-24T00:57:50.120Z,76
2023-05-24T01:01:15.354Z,76
2023-05-24T01:04:40.546Z,75
2023-05-24T01:08:05.776Z,76
2023-05-24T01:11:31.044Z,76
2023-05-24T01:14:56.215Z,76
2023-05-24T01:18:21.410Z,76
2023-05-24T01:21:46.665Z,76
2023-05-24T01:25:11.895Z,76
2023-05-24T01:28:37.117Z,75
2023-05-24T01:32:02.315Z,76
2023-05-24T01:35:27.510Z,76
2023-05-24T01:38:52.722Z,75
2023-05-24T01:42:17.907Z,75
2023-05-24T01:45:43.123Z,76
2023-05-24T01:49:08.352Z,75
2023-05-24T01:52:33.555Z,76
2023-05-24T01:55:58.787Z,75
2023-05-24T01:59:23.990Z,75
2023-05-24T02:02:49.385Z,75
2023-05-24T02:06:14.397Z,75
2023-05-24T02:09:39.596Z,76
2023-05-24T02:13:04.817Z,75
2023-05-24T02:16:30.090Z,75
2023-05-24T02:19:55.298Z,76
2023-05-24T02:23:20.439Z,76
2023-05-24T02:26:45.646Z,76
2023-05-24T02:30:10.865Z,76
2023-05-24T02:33:36.065Z,75
2023-05-24T02:37:01.292Z,76
2023-05-24T02:40:26.489Z,76
2023-05-24T02:43:51.674Z,76
2023-05-24T02:47:16.908Z,77
2023-05-24T02:50:42.224Z,77
2023-05-24T02:54:07.375Z,76
2023-05-24T02:57:32.540Z,74
2023-05-24T03:00:57.751Z,75
2023-05-24T03:04:22.968Z,75
2023-05-24T03:07:48.228Z,75
2023-05-24T03:11:13.475Z,75
2023-05-24T03:14:38.683Z,75
2023-05-24T03:18:04.000Z,74
2023-05-24T03:21:29.117Z,73
2023-05-24T03:24:54.348Z,73
2023-05-24T03:28:19.586Z,73
2023-05-24T03:31:44.829Z,73
2023-05-24T03:35:10.043Z,73
2023-05-24T03:38:35.238Z,73
2023-05-24T03:42:00.465Z,74
2023-05-24T03:45:34.977Z,73
2023-05-24T03:48:50.915Z,73
2023-05-24T03:52:16.135Z,73
2023-05-24T03:55:41.384Z,74
2023-05-24T03:59:06.664Z,74
2023-05-24T04:02:31.906Z,74
2023-05-24T04:05:57.098Z,73
2023-05-24T04:09:22.329Z,73
2023-05-24T04:12:47.558Z,73
2023-05-24T04:16:12.757Z,73
2023-05-24T04:19:37.999Z,72
2023-05-24T04:23:03.208Z,72
2023-05-24T04:26:28.423Z,73
2023-05-24T04:29:53.645Z,72
2023-05-24T04:33:18.849Z,73
2023-05-24T04:36:44.104Z,72
2023-05-24T04:40:09.614Z,73
2023-05-24T04:43:34.865Z,74
2023-05-24T04:47:00.190Z,74
2023-05-24T04:50:25.329Z,74
2023-05-24T04:53:50.590Z,74
2023-05-24T04:57:15.904Z,74
2023-05-24T05:00:41.508Z,75
2023-05-24T05:04:06.618Z,75
2023-05-24T05:07:31.776Z,75
2023-05-24T05:10:57.043Z,75
2023-05-24T05:14:22.574Z,75
2023-05-24T05:17:47.812Z,75
2023-05-24T05:21:13.009Z,75
2023-05-24T05:24:38.238Z,76
2023-05-24T05:28:03.479Z,75
2023-05-24T05:31:28.686Z,76
2023-05-24T05:34:53.960Z,77
2023-05-24T05:38:19.168Z,77
2023-05-24T05:41:45.624Z,76
2023-05-24T05:45:09.636Z,76
2023-05-24T05:48:34.865Z,77
2023-05-24T05:52:00.090Z,76
2023-05-24T05:55:25.244Z,77
2023-05-24T05:58:50.469Z,76
2023-05-24T06:02:15.750Z,78
2023-05-24T06:05:40.919Z,76
2023-05-24T06:09:06.183Z,76
2023-05-24T06:12:31.405Z,78
2023-05-24T06:15:56.624Z,77
2023-05-24T06:19:21.907Z,76
2023-05-24T06:22:47.094Z,78
2023-05-24T06:26:12.338Z,77
2023-05-24T06:29:37.629Z,77
2023-05-24T06:33:02.816Z,74
2023-05-24T06:36:28.029Z,74
2023-05-24T06:39:53.244Z,75
2023-05-24T06:43:18.451Z,73
2023-05-24T06:46:43.720Z,74
2023-05-24T06:50:08.903Z,74
2023-05-24T06:53:34.182Z,72
2023-05-24T06:56:59.407Z,72
2023-05-24T07:00:24.644Z,72
2023-05-24T07:03:49.867Z,71
2023-05-24T07:07:15.083Z,70
2023-05-24T07:10:40.552Z,71
2023-05-24T07:14:05.590Z,70
2023-05-24T07:17:30.831Z,71
2023-05-24T07:20:56.030Z,68
2023-05-24T07:24:21.289Z,68
2023-05-24T07:27:46.617Z,64
2023-05-24T07:31:11.803Z,64
2023-05-24T07:34:36.994Z,65
2023-05-24T07:38:02.241Z,67
2023-05-24T07:41:27.486Z,66
2023-05-24T07:44:52.738Z,65
2023-05-24T07:48:18.330Z,63
2023-05-24T07:51:43.382Z,65
2023-05-24T07:55:08.617Z,64
2023-05-24T07:58:33.808Z,63
2023-05-24T08:01:59.126Z,68
2023-05-24T08:05:24.216Z,67
2023-05-24T08:08:49.447Z,60
2023-05-24T08:12:17.043Z,61
2023-05-24T08:15:39.937Z,58
2023-05-24T08:19:05.250Z,62
2023-05-24T08:22:30.380Z,62
2023-05-24T08:25:55.582Z,63
2023-05-24T08:29:20.816Z,62
2023-05-24T08:32:46.126Z,63
2023-05-24T08:36:11.289Z,60
2023-05-24T08:39:36.514Z,59
2023-05-24T08:43:01.762Z,57
2023-05-24T08:46:27.053Z,60
2023-05-24T08:49:52.241Z,60
2023-05-24T08:53:17.691Z,62
2023-05-24T08:56:42.739Z,56
2023-05-24T09:00:07.964Z,58
2023-05-24T09:03:33.209Z,60
2023-05-24T09:06:58.420Z,60
2023-05-24T09:10:23.776Z,60
2023-05-24T09:13:48.872Z,61
2023-05-24T09:17:14.114Z,57
2023-05-24T09:20:39.436Z,54
2023-05-24T09:24:04.648Z,55
2023-05-24T09:27:29.931Z,56
2023-05-24T09:30:55.129Z,59
2023-05-24T09:34:20.368Z,57
2023-05-24T09:37:45.586Z,58
2023-05-24T09:41:10.839Z,58
2023-05-24T09:44:36.185Z,57
2023-05-24T09:48:01.348Z,57
2023-05-24T09:51:26.537Z,58
2023-05-24T09:54:51.766Z,57
2023-05-24T09:58:17.024Z,55
2023-05-24T10:01:42.360Z,57
2023-05-24T10:05:07.502Z,54
2023-05-24T10:08:32.747Z,55
2023-05-24T10:11:57.973Z,58
2023-05-24T10:15:23.217Z,56
2023-05-24T10:18:48.467Z,59
2023-05-24T10:22:13.710Z,56
2023-05-24T10:25:38.922Z,55
2023-05-24T10:29:04.149Z,53
2023-05-24T10:32:29.402Z,55
2023-05-24T10:35:54.772Z,58
2023-05-24T10:39:19.817Z,54
2023-05-24T10:42:45.045Z,53
2023-05-24T10:46:10.324Z,54
2023-05-24T10:49:35.546Z,53
2023-05-24T10:53:00.820Z,55
2023-05-24T10:56:25.994Z,57
2023-05-24T10:59:51.353Z,57
2023-05-24T11:03:16.584Z,59
2023-05-24T11:06:41.823Z,56
2023-05-24T11:10:07.074Z,55
2023-05-24T11:13:32.310Z,57
2023-05-24T11:16:57.537Z,57
2023-05-24T11:20:22.909Z,57
2023-05-24T11:23:48.092Z,55
2023-05-24T11:27:13.366Z,54
2023-05-24T11:30:38.560Z,56
2023-05-24T11:34:03.805Z,55
2023-05-24T11:37:38.772Z,57
2023-05-24T11:40:54.897Z,52
2023-05-24T11:44:20.192Z,54
2023-05-24T11:47:45.403Z,56
2023-05-24T11:51:10.602Z,55
2023-05-24T11:54:35.868Z,54
2023-05-24T11:58:01.126Z,52
2023-05-24T12:01:26.472Z,51
2023-05-24T12:04:51.818Z,52
2023-05-24T12:08:17.067Z,56
2023-05-24T12:11:42.479Z,54
2023-05-24T12:15:07.531Z,52
2023-05-24T12:18:33.539Z,52
2023-05-24T12:21:58.670Z,52
2023-05-24T12:25:23.902Z,56
2023-05-24T12:28:49.142Z,55
2023-05-24T12:32:15.617Z,54
2023-05-24T12:35:39.681Z,55
2023-05-24T12:39:04.829Z,53
2023-05-24T12:42:30.036Z,54
2023-05-24T12:45:55.313Z,51
2023-05-24T12:49:20.559Z,55
2023-05-24T12:52:45.934Z,52
2023-05-24T12:56:11.078Z,54
2023-05-24T12:59:36.333Z,54
2023-05-24T13:03:01.703Z,54
2023-05-24T13:06:26.814Z,53
2023-05-24T13:09:52.366Z,55
2023-05-24T13:13:17.584Z,53
2023-05-24T13:16:42.918Z,54
2023-05-24T13:20:08.092Z,53
2023-05-24T13:23:33.254Z,54
2023-05-24T13:26:58.497Z,55
2023-05-24T13:30:23.707Z,52
2023-05-24T13:33:48.963Z,51
2023-05-24T13:37:14.196Z,52
2023-05-24T13:40:41.505Z,52
2023-05-24T13:44:04.682Z,56
2023-05-24T13:47:39.132Z,52
2023-05-24T13:50:55.107Z,51
2023-05-24T13:54:20.343Z,56
2023-05-24T13:57:51.495Z,54
2023-05-24T14:01:10.985Z,50
2023-05-24T14:04:36.115Z,50
2023-05-24T14:08:01.339Z,51
2023-05-24T14:11:26.586Z,54
2023-05-24T14:18:17.091Z,52
2023-05-24T14:21:42.311Z,54
2023-05-24T14:25:07.581Z,51
2023-05-24T14:28:32.836Z,50
2023-05-24T14:31:58.103Z,51
2023-05-24T14:35:23.318Z,50
2023-05-24T14:38:48.581Z,52
2023-05-24T14:42:13.842Z,50
2023-05-24T14:45:39.151Z,54
2023-05-24T14:49:04.441Z,51
2023-05-24T14:52:29.750Z,50
2023-05-24T14:55:54.973Z,51
2023-05-24T14:59:20.261Z,52
2023-05-24T15:02:45.553Z,54
2023-05-24T15:06:10.807Z,54
2023-05-24T15:09:36.067Z,55
2023-05-24T15:46:14.942Z,54
2023-05-24T15:49:40.132Z,53
2023-05-24T15:53:05.424Z,53
2023-05-24T15:56:30.710Z,54
2023-05-24T16:00:00.323Z,55
2023-05-24T16:03:25.719Z,53
2023-05-24T16:06:50.907Z,54
2023-05-24T16:10:16.128Z,55
2023-05-24T16:13:41.390Z,55
2023-05-24T16:17:06.752Z,56
2023-05-24T16:20:31.994Z,54
2023-05-24T16:23:58.383Z,56
2023-05-24T16:27:22.462Z,54
2023-05-24T16:30:47.692Z,54
2023-05-24T16:34:12.985Z,54
2023-05-24T16:37:38.249Z,55
2023-05-24T16:41:03.502Z,55
2023-05-24T16:44:28.784Z,55
2023-05-24T16:47:54.134Z,55
2023-05-24T16:51:19.277Z,55
2023-05-24T16:54:46.136Z,56
2023-05-24T16:58:11.925Z,55
2023-05-24T17:01:37.696Z,55
2023-05-24T17:05:02.905Z,55
2023-05-24T17:08:28.104Z,56
2023-05-24T17:11:53.413Z,55
2023-05-24T17:15:18.712Z,55
2023-05-24T17:18:44.025Z,56
2023-05-24T17:22:09.258Z,56
2023-05-24T17:25:34.478Z,56
2023-05-24T17:28:59.810Z,57
2023-05-24T17:32:25.153Z,58
2023-05-24T17:35:50.351Z,57
2023-05-24T17:39:15.589Z,59
2023-05-24T17:42:40.845Z,57
2023-05-24T17:46:06.717Z,59
2023-05-24T17:49:31.411Z,59
2023-05-24T17:52:56.666Z,59
2023-05-24T17:56:21.936Z,60
2023-05-24T17:59:47.201Z,60
2023-05-24T18:03:12.462Z,59
2023-05-24T18:06:37.770Z,60
2023-05-24T18:10:03.035Z,60
2023-05-24T18:13:28.283Z,61
2023-05-24T18:16:53.505Z,60
2023-05-24T18:20:18.801Z,60
2023-05-24T18:23:43.960Z,61
2023-05-24T18:27:09.183Z,60
2023-05-24T18:30:34.423Z,62
2023-05-24T18:34:01.487Z,62
2023-05-24T18:37:24.939Z,62
2023-05-24T18:40:50.198Z,63
2023-05-24T18:44:15.458Z,63
2023-05-24T18:47:40.745Z,64
2023-05-24T18:51:05.983Z,64
2023-05-24T18:54:31.272Z,64
2023-05-24T18:57:56.492Z,65
2023-05-24T19:01:21.811Z,64
2023-05-24T19:04:46.978Z,65
2023-05-24T19:08:12.436Z,66
2023-05-24T19:11:37.687Z,66
2023-05-24T19:15:02.880Z,66
2023-05-24T19:18:28.089Z,67
2023-05-24T19:21:53.390Z,67
2023-05-24T19:25:18.665Z,67
2023-05-24T19:28:43.876Z,68
2023-05-24T19:32:09.150Z,69
2023-05-24T19:35:34.379Z,68
2023-05-24T19:38:59.673Z,68
2023-05-24T19:42:24.907Z,68
2023-05-24T19:45:50.184Z,69
2023-05-24T19:49:15.378Z,69
2023-05-24T19:52:40.663Z,70
2023-05-24T19:56:05.875Z,69
2023-05-24T19:59:31.101Z,70
2023-05-24T20:02:56.492Z,71
2023-05-24T20:06:21.572Z,71
2023-05-24T20:09:46.820Z,72
2023-05-24T20:13:12.027Z,72
2023-05-24T20:16:37.276Z,73
2023-05-24T20:20:02.508Z,72
2023-05-24T20:23:27.689Z,73
2023-05-24T20:26:52.889Z,72
2023-05-24T20:30:18.212Z,72
2023-05-24T20:33:43.511Z,73
2023-05-24T20:37:08.771Z,72
2023-05-24T20:40:33.956Z,73
2023-05-24T20:43:59.220Z,73
2023-05-24T20:47:24.507Z,73
2023-05-24T20:50:49.703Z,73
2023-05-24T20:54:14.950Z,73
2023-05-24T20:57:40.119Z,73
2023-05-24T21:01:05.351Z,73
2023-05-24T21:04:30.589Z,74
2023-05-24T21:07:55.929Z,74
2023-05-24T21:11:21.371Z,75
2023-05-24T21:14:46.619Z,74
2023-05-24T21:18:11.950Z,74
2023-05-24T21:21:37.126Z,74
2023-05-24T21:25:02.340Z,74
2023-05-24T21:28:27.680Z,74
2023-05-24T21:31:52.749Z,74
2023-05-24T21:35:18.020Z,74
2023-05-24T21:38:43.239Z,75
2023-05-24T21:42:08.475Z,75
2023-05-24T21:45:33.756Z,75
2023-05-24T21:48:58.999Z,76
2023-05-24T21:52:24.254Z,75
2023-05-24T21:55:49.582Z,74
2023-05-24T21:59:14.803Z,74
2023-05-24T22:02:40.181Z,75
2023-05-24T22:06:05.402Z,75
2023-05-24T22:09:30.624Z,75
2023-05-24T22:12:57.995Z,75
2023-05-24T22:16:23.299Z,75
2023-05-24T22:19:48.560Z,75
2023-05-24T22:23:13.798Z,75
2023-05-24T22:26:39.074Z,76
2023-05-24T22:30:04.316Z,75
2023-05-24T22:33:29.558Z,75
2023-05-24T22:36:54.767Z,75
2023-05-24T22:40:19.945Z,75
2023-05-24T22:43:45.279Z,75
2023-05-24T22:47:10.493Z,76
2023-05-24T22:50:35.734Z,76
2023-05-24T22:54:00.985Z,76
2023-05-24T22:57:26.185Z,76
2023-05-24T23:00:51.498Z,76
2023-05-24T23:04:20.273Z,76
2023-05-24T23:07:41.975Z,76
2023-05-24T23:11:07.255Z,76
2023-05-24T23:14:32.484Z,76
2023-05-24T23:17:57.745Z,76
2023-05-24T23:21:23.021Z,76
2023-05-24T23:24:48.352Z,76
2023-05-24T23:28:13.601Z,76
2023-05-24T23:31:38.813Z,76
2023-05-24T23:35:04.056Z,76
2023-05-24T23:38:29.314Z,76
2023-05-24T23:41:54.566Z,76
2023-05-24T23:45:19.830Z,77
2023-05-24T23:48:45.064Z,77
2023-05-24T23:52:10.370Z,77
2023-05-24T23:55:35.582Z,76
2023-05-24T23:59:00.794Z,76
